Dickinson's Hourly Summary for Wednesday, July 11, 2018
Hour Temp
(f)
RH
(%)
Solar Rad.
(MJ/m2)
Rainfall
(in)
Wind
(mph)
7/11/2018 12:00 AM 78 87 0 0 0
7/11/2018 1:00 AM 77 92 0 0 0
7/11/2018 2:00 AM 77 92 0 0 0
7/11/2018 3:00 AM 76 93 0 0 0
7/11/2018 4:00 AM 76 95 0 0 0
7/11/2018 5:00 AM 76 96 0 0 0
7/11/2018 6:00 AM 76 96 0 0 0
7/11/2018 7:00 AM 75 96 0.03 0 0
7/11/2018 8:00 AM 77 86 0.33 0 0.3
7/11/2018 9:00 AM 82 72 0.92 0 0.71
7/11/2018 10:00 AM 84 68 1.22 0 1.86
7/11/2018 11:00 AM 86 56 2.12 0 1.91
7/11/2018 12:00 PM 88 50 2.32 0 1.62
7/11/2018 1:00 PM 88 50 2.33 0 1.53
7/11/2018 2:00 PM 90 47 3.15 0 2.42
7/11/2018 3:00 PM 90 43 3.14 0 3.63
7/11/2018 4:00 PM 91 43 2.83 0 3.82
7/11/2018 5:00 PM 89 59 2.36 0 6.36
7/11/2018 6:00 PM 88 61 1.35 0 5.74
7/11/2018 7:00 PM 87 65 0.54 0 4.74
7/11/2018 8:00 PM 85 65 0.37 0 5.18
7/11/2018 9:00 PM 83 72 0.02 0 2.6
7/11/2018 10:00 PM 81 76 0 0 1.92
7/11/2018 11:00 PM 80 80 0 0 1.26
Data Summary 82 72 23.03 0.00 1.90